Time;durP1;ratioP1;P1;durP2;ratioP2;P2;SDS_P1;SDS_P2;PMS_P1;PMS_P2;Temp;Humidity;BMP_temperature;BMP_pressure;BME280_temperature;BME280_humidity;BME280_pressure;Samples;Min_cycle;Max_cycle;Signal;HPM_P1;HPM_P2
2023/03/15 00:01:09;;;;;;;1.63;0.60;;;;;;;2.37;100.00;101228.59;5130791;27;20047;-36
2023/03/15 00:03:38;;;;;;;2.00;0.68;;;;;;;2.33;100.00;101228.06;5130894;27;20039;-36
2023/03/15 00:06:04;;;;;;;2.15;1.02;;;;;;;2.14;100.00;101207.91;5130405;28;20349;-35
2023/03/15 00:08:32;;;;;;;1.33;0.65;;;;;;;2.21;100.00;101221.44;5131126;27;20030;-37
2023/03/15 00:10:58;;;;;;;1.70;0.70;;;;;;;2.18;100.00;101222.56;5130746;27;20051;-34
2023/03/15 00:13:23;;;;;;;1.20;0.60;;;;;;;2.15;100.00;101224.72;5120907;27;20123;-36
2023/03/15 00:15:50;;;;;;;3.57;0.87;;;;;;;2.15;100.00;101219.41;5117277;28;20039;-36
2023/03/15 00:18:17;;;;;;;2.78;0.80;;;;;;;2.16;100.00;101216.59;5115647;28;20498;-36
2023/03/15 00:20:43;;;;;;;0.75;0.55;;;;;;;2.21;100.00;101216.09;5117444;28;20027;-36
2023/03/15 00:23:09;;;;;;;1.70;0.80;;;;;;;2.23;100.00;101206.06;5116642;28;20036;-37
2023/03/15 00:25:35;;;;;;;0.90;0.70;;;;;;;2.18;100.00;101197.72;5117614;28;20471;-34
2023/03/15 00:28:00;;;;;;;2.08;0.90;;;;;;;2.24;100.00;101207.72;5117537;28;20024;-35
2023/03/15 00:30:26;;;;;;;2.42;0.88;;;;;;;2.23;100.00;101206.91;5116968;28;20027;-35
2023/03/15 00:32:52;;;;;;;2.15;1.00;;;;;;;2.16;100.00;101205.91;5116558;28;20451;-36
2023/03/15 00:35:19;;;;;;;1.90;0.70;;;;;;;2.23;100.00;101217.56;5116346;28;20020;-36
2023/03/15 00:37:45;;;;;;;0.95;0.70;;;;;;;2.12;100.00;101207.25;5116184;28;20083;-36
2023/03/15 00:40:11;;;;;;;2.08;1.17;;;;;;;2.16;100.00;101219.25;5116945;28;20122;-36
2023/03/15 00:42:37;;;;;;;3.33;1.48;;;;;;;2.19;100.00;101220.75;5116625;28;20100;-36
2023/03/15 00:45:04;;;;;;;1.85;1.08;;;;;;;2.16;100.00;101219.25;5116699;28;20077;-36
2023/03/15 00:47:30;;;;;;;4.43;2.05;;;;;;;2.17;100.00;101217.41;5116322;28;20026;-37
2023/03/15 00:49:55;;;;;;;2.78;1.83;;;;;;;2.16;100.00;101213.91;5116636;28;20029;-36
2023/03/15 00:52:21;;;;;;;2.97;1.90;;;;;;;2.18;100.00;101217.25;5116003;28;20440;-36
2023/03/15 00:54:54;;;;;;;3.03;1.70;;;;;;;2.19;100.00;101218.91;5115964;28;20032;-36
2023/03/15 00:57:20;;;;;;;3.28;1.88;;;;;;;2.26;100.00;101221.75;5116081;28;20027;-36
2023/03/15 00:59:45;;;;;;;;;;;;;;;2.30;100.00;101221.25;5116852;28;20114;-36
2023/03/15 01:02:11;;;;;;;2.37;1.53;;;;;;;2.25;100.00;101225.44;5115674;28;19994;-36
2023/03/15 01:04:36;;;;;;;2.67;1.98;;;;;;;2.29;100.00;101232.06;5116015;28;20280;-36
2023/03/15 01:07:03;;;;;;;2.60;1.53;;;;;;;2.29;100.00;101248.94;5116044;27;20015;-36
2023/03/15 01:09:30;;;;;;;2.92;1.60;;;;;;;2.34;100.00;101245.75;5116504;28;20269;-42
2023/03/15 01:11:56;;;;;;;3.03;1.70;;;;;;;2.21;100.00;101224.91;5116372;28;20031;-36
2023/03/15 01:14:21;;;;;;;4.35;1.90;;;;;;;2.37;100.00;101255.28;5116388;27;20356;-36
2023/03/15 01:16:47;;;;;;;3.38;1.38;;;;;;;2.38;100.00;101254.25;5115732;28;20517;-36
2023/03/15 01:19:13;;;;;;;2.60;1.30;;;;;;;2.42;100.00;101252.94;5115535;28;20417;-36
2023/03/15 01:21:39;;;;;;;2.40;1.20;;;;;;;2.34;100.00;101240.41;5114047;28;20380;-36
2023/03/15 01:24:05;;;;;;;2.58;1.50;;;;;;;2.42;100.00;101258.28;5114989;28;20028;-36
2023/03/15 01:26:30;;;;;;;2.08;1.23;;;;;;;2.44;100.00;101262.47;5115616;28;20023;-36
2023/03/15 01:28:55;;;;;;;2.78;1.52;;;;;;;2.47;100.00;101255.94;5115762;28;20132;-36
2023/03/15 01:31:27;;;;;;;4.57;1.80;;;;;;;2.46;100.00;101259.59;5116400;28;20451;-36
2023/03/15 01:33:53;;;;;;;2.70;1.50;;;;;;;2.57;100.00;101275.28;5115250;28;20058;-36
2023/03/15 01:36:18;;;;;;;2.97;1.55;;;;;;;2.53;100.00;101276.59;5115463;28;20034;-35
2023/03/15 01:38:44;;;;;;;2.30;1.20;;;;;;;2.42;100.00;101287.63;5115116;28;20023;-35
2023/03/15 01:41:11;;;;;;;2.13;1.10;;;;;;;2.36;100.00;101269.63;5115776;28;20031;-36
2023/03/15 01:43:37;;;;;;;2.28;1.05;;;;;;;2.21;100.00;101282.78;5115122;28;20030;-35
2023/03/15 01:46:22;;;;;;;1.40;1.08;;;;;;;2.23;100.00;101286.94;5115819;28;20031;-36
2023/03/15 01:49:11;;;;;;;1.58;0.90;;;;;;;2.20;100.00;101284.63;5116055;28;20035;-36
2023/03/15 01:51:50;;;;;;;1.52;1.02;;;;;;;2.06;100.00;101286.09;5115351;28;20020;-36
2023/03/15 01:54:42;;;;;;;2.15;1.10;;;;;;;1.85;100.00;101304.38;5115112;28;20069;-36
2023/03/15 01:57:10;;;;;;;1.05;0.90;;;;;;;1.83;100.00;101309.06;5115230;28;20456;-36
2023/03/15 01:59:42;;;;;;;2.53;1.33;;;;;;;1.85;100.00;101319.56;5114562;28;20494;-36
2023/03/15 02:02:08;;;;;;;2.08;1.00;;;;;;;1.83;100.00;101321.56;5115160;28;20100;-36
2023/03/15 02:04:47;;;;;;;1.42;1.25;;;;;;;1.77;100.00;101307.06;5115208;28;20111;-36
2023/03/15 02:07:16;;;;;;;1.55;1.10;;;;;;;1.62;100.00;101290.84;5114838;28;20035;-37
2023/03/15 02:09:53;;;;;;;1.05;0.90;;;;;;;1.83;100.00;101313.56;5114377;28;20024;-35
2023/03/15 02:12:18;;;;;;;;;;;;;;;1.92;100.00;101313.44;5115708;28;20268;-36
2023/03/15 02:14:49;;;;;;;1.10;1.00;;;;;;;1.91;100.00;101324.25;5115198;28;20407;-35
2023/03/15 02:17:19;;;;;;;1.13;0.90;;;;;;;1.96;100.00;101316.59;5114213;28;20436;-35
2023/03/15 02:19:59;;;;;;;1.40;1.00;;;;;;;2.02;100.00;101316.78;5097565;28;20115;-36
2023/03/15 02:22:28;;;;;;;1.25;1.10;;;;;;;2.04;100.00;101309.44;5114049;28;20530;-36
2023/03/15 02:25:07;;;;;;;1.48;1.10;;;;;;;2.09;100.00;101319.63;5114544;28;20024;-36
2023/03/15 02:27:35;;;;;;;1.58;1.02;;;;;;;1.94;100.00;101281.25;5114930;28;20079;-36
2023/03/15 02:30:02;;;;;;;1.33;1.10;;;;;;;2.11;100.00;101306.97;5114679;28;20383;-36
2023/03/15 02:32:28;;;;;;;1.25;1.15;;;;;;;2.08;100.00;101301.13;5114651;28;20031;-36
2023/03/15 02:34:53;;;;;;;2.20;1.33;;;;;;;1.88;100.00;101273.91;5114871;28;20024;-36
2023/03/15 02:37:20;;;;;;;2.07;1.37;;;;;;;2.08;100.00;101307.28;5112743;28;20050;-35
2023/03/15 02:39:45;;;;;;;2.97;1.58;;;;;;;2.04;100.00;101297.94;5114526;28;20372;-35
2023/03/15 02:42:11;;;;;;;2.13;1.63;;;;;;;2.13;100.00;101315.63;5113835;28;20023;-36
2023/03/15 02:44:40;;;;;;;2.67;1.70;;;;;;;2.09;100.00;101316.13;5113940;28;20034;-36
2023/03/15 02:47:29;;;;;;;2.40;1.88;;;;;;;2.16;100.00;101319.81;5113844;28;20031;-35
2023/03/15 02:49:54;;;;;;;2.67;2.10;;;;;;;2.06;100.00;101311.97;5114997;27;20042;-35
2023/03/15 02:52:21;;;;;;;2.67;1.60;;;;;;;2.13;100.00;101325.47;5114015;28;20032;-36
2023/03/15 02:54:46;;;;;;;3.65;2.15;;;;;;;2.16;100.00;101323.31;5114365;28;20035;-36
2023/03/15 02:57:13;;;;;;;2.73;1.90;;;;;;;2.08;100.00;101317.94;5114352;28;20451;-35
2023/03/15 02:59:41;;;;;;;3.15;2.28;;;;;;;2.19;100.00;101332.81;5114378;28;20036;-35
2023/03/15 03:02:06;;;;;;;2.13;1.85;;;;;;;2.21;100.00;101338.84;5113522;28;20465;-36
2023/03/15 03:04:32;;;;;;;2.90;2.25;;;;;;;2.23;100.00;101342.16;5114553;28;20067;-35
2023/03/15 03:06:57;;;;;;;3.47;2.43;;;;;;;2.25;100.00;101341.00;5114182;28;20110;-36
2023/03/15 03:09:23;;;;;;;3.70;2.77;;;;;;;2.22;100.00;101352.00;5113914;28;20269;-36
2023/03/15 03:11:49;;;;;;;4.45;3.15;;;;;;;2.23;100.00;101352.84;5113573;28;20548;-36
2023/03/15 03:14:14;;;;;;;7.05;3.78;;;;;;;2.25;100.00;101351.69;5114486;28;20027;-35
2023/03/15 03:16:41;;;;;;;4.27;3.60;;;;;;;2.22;100.00;101354.66;5113966;28;20023;-35
2023/03/15 03:19:07;;;;;;;4.72;3.92;;;;;;;2.24;100.00;101363.34;5113788;28;20027;-35
2023/03/15 03:21:32;;;;;;;5.88;4.25;;;;;;;2.04;100.00;101337.94;5113683;28;20396;-35
2023/03/15 03:23:58;;;;;;;6.47;5.13;;;;;;;2.27;100.00;101362.19;5113801;28;20079;-35
2023/03/15 03:26:26;;;;;;;5.90;5.30;;;;;;;2.26;100.00;101382.69;5114096;28;20024;-35
2023/03/15 03:28:53;;;;;;;7.72;5.40;;;;;;;2.28;100.00;101386.03;5114272;28;20117;-35
2023/03/15 03:31:20;;;;;;;;;;;;;;;2.34;100.00;101384.53;5114239;28;20030;-36
2023/03/15 03:33:46;;;;;;;7.50;6.10;;;;;;;2.28;100.00;101394.03;5114344;28;19922;-36
2023/03/15 03:36:12;;;;;;;7.57;6.32;;;;;;;2.23;100.00;101401.69;5113700;28;20038;-36
2023/03/15 03:38:42;;;;;;;6.97;6.20;;;;;;;2.20;100.00;101387.88;5113700;28;20036;-36
2023/03/15 03:41:09;;;;;;;7.38;5.90;;;;;;;2.26;100.00;101403.22;5114456;28;20414;-36
2023/03/15 03:43:35;;;;;;;6.95;5.97;;;;;;;2.08;100.00;101378.47;5113366;28;20077;-36
2023/03/15 03:46:00;;;;;;;6.63;5.72;;;;;;;2.25;100.00;101406.91;5114268;28;20024;-36
2023/03/15 03:48:26;;;;;;;7.80;6.23;;;;;;;2.13;100.00;101392.16;5115556;28;20023;-38
2023/03/15 03:50:51;;;;;;;6.70;6.00;;;;;;;2.16;100.00;101406.03;5117740;28;20051;-36
2023/03/15 03:53:17;;;;;;;6.97;6.27;;;;;;;2.18;100.00;101412.03;5117464;28;20019;-36
2023/03/15 03:55:42;;;;;;;6.53;5.82;;;;;;;2.15;100.00;101408.84;5117056;28;20032;-36
2023/03/15 03:58:08;;;;;;;6.50;5.37;;;;;;;2.16;100.00;101419.38;5117389;28;20041;-36
2023/03/15 04:00:34;;;;;;;8.65;5.95;;;;;;;2.12;100.00;101417.19;5117189;28;20024;-36
2023/03/15 04:03:00;;;;;;;7.00;6.20;;;;;;;2.10;100.00;101428.03;5117968;28;20039;-36
2023/03/15 04:05:27;;;;;;;6.40;5.80;;;;;;;2.05;100.00;101419.69;5115959;28;20074;-37
2023/03/15 04:07:52;;;;;;;;;;;;;;;2.13;100.00;101429.53;5117223;28;20065;-36
2023/03/15 04:10:18;;;;;;;7.25;6.22;;;;;;;2.00;100.00;101428.16;5117799;28;19918;-36
2023/03/15 04:12:44;;;;;;;7.63;5.85;;;;;;;1.97;100.00;101424.97;5116667;28;20028;-39
2023/03/15 04:15:10;;;;;;;7.03;6.00;;;;;;;1.89;100.00;101441.75;5115489;28;20035;-36
2023/03/15 04:17:37;;;;;;;6.55;5.60;;;;;;;1.68;100.00;101412.81;5115729;28;20106;-36
2023/03/15 04:20:09;;;;;;;8.15;6.03;;;;;;;1.78;100.00;101450.88;5116798;28;20027;-36
2023/03/15 04:22:34;;;;;;;7.25;5.85;;;;;;;1.83;100.00;101466.41;5116533;28;20031;-36
2023/03/15 04:25:00;;;;;;;8.87;6.80;;;;;;;1.85;100.00;101468.91;5117122;28;20023;-36
2023/03/15 04:27:26;;;;;;;;;;;;;;;1.88;100.00;101469.44;5117429;28;20034;-36
2023/03/15 04:29:52;;;;;;;6.40;5.80;;;;;;;1.70;100.00;101472.16;5116979;27;19998;-35
2023/03/15 04:32:17;;;;;;;6.50;5.90;;;;;;;1.46;100.00;101440.84;5117196;28;20102;-35
2023/03/15 04:34:42;;;;;;;6.90;6.13;;;;;;;1.65;100.00;101481.63;5116925;28;20034;-35
2023/03/15 04:37:08;;;;;;;7.20;6.00;;;;;;;1.63;100.00;101481.78;5116257;28;20034;-35
2023/03/15 04:39:33;;;;;;;6.63;5.93;;;;;;;1.62;100.00;101480.13;5116592;28;20109;-35
2023/03/15 04:41:59;;;;;;;6.80;6.10;;;;;;;1.61;100.00;101486.47;5116375;28;20070;-35
2023/03/15 04:44:25;;;;;;;7.60;5.90;;;;;;;1.60;100.00;101490.09;5116166;28;20487;-35
2023/03/15 04:46:51;;;;;;;6.72;6.05;;;;;;;1.61;100.00;101493.59;5116431;28;20397;-35
2023/03/15 04:49:16;;;;;;;6.57;5.55;;;;;;;1.63;100.00;101491.63;5116343;28;20030;-36
2023/03/15 04:51:42;;;;;;;6.63;5.70;;;;;;;1.58;100.00;101501.91;5116010;28;20105;-36
2023/03/15 04:54:07;;;;;;;6.40;5.63;;;;;;;1.54;100.00;101509.38;5116659;28;20020;-35
2023/03/15 04:56:32;;;;;;;5.93;5.33;;;;;;;1.47;100.00;101490.53;5116148;28;20020;-35
2023/03/15 04:58:58;;;;;;;6.50;5.80;;;;;;;1.54;100.00;101506.72;5116364;28;20059;-36
2023/03/15 05:01:28;;;;;;;6.73;5.80;;;;;;;1.41;100.00;101490.28;5115818;28;20023;-36
2023/03/15 05:03:54;;;;;;;6.20;5.60;;;;;;;1.50;100.00;101518.69;5116449;28;20096;-36
2023/03/15 05:06:19;;;;;;;6.00;5.40;;;;;;;1.49;100.00;101522.34;5116374;28;20357;-35
2023/03/15 05:08:45;;;;;;;6.73;5.73;;;;;;;1.48;100.00;101518.00;5115636;28;20463;-35
2023/03/15 05:11:11;;;;;;;6.00;5.40;;;;;;;1.41;100.00;101519.59;5116792;28;20074;-35
2023/03/15 05:13:36;;;;;;;6.90;6.07;;;;;;;1.41;100.00;101524.94;5115636;28;20051;-35
2023/03/15 05:16:02;;;;;;;6.80;5.73;;;;;;;1.37;100.00;101526.25;5115847;28;20031;-35
2023/03/15 05:18:27;;;;;;;7.73;6.17;;;;;;;1.27;100.00;101516.53;5116581;28;20028;-35
2023/03/15 05:20:54;;;;;;;6.95;6.25;;;;;;;1.34;100.00;101530.06;5116529;28;20034;-35
2023/03/15 05:23:22;;;;;;;6.57;5.50;;;;;;;1.31;100.00;101525.03;5115914;28;20471;-35
2023/03/15 05:25:54;;;;;;;7.28;6.05;;;;;;;1.23;100.00;101531.13;5115384;28;20483;-35
2023/03/15 05:28:24;;;;;;;6.80;5.90;;;;;;;1.27;100.00;101532.50;5115552;28;20027;-35
2023/03/15 05:30:51;;;;;;;6.43;5.60;;;;;;;1.22;100.00;101531.25;5116124;28;20036;-35
2023/03/15 05:33:16;;;;;;;7.00;6.30;;;;;;;1.17;100.00;101538.88;5115738;28;20119;-35
2023/03/15 05:35:45;;;;;;;8.05;6.63;;;;;;;1.13;100.00;101540.19;5115439;28;20465;-35
2023/03/15 05:38:14;;;;;;;7.13;6.35;;;;;;;1.11;100.00;101545.66;5114874;28;20053;-36
2023/03/15 05:40:44;;;;;;;7.70;6.70;;;;;;;1.11;100.00;101548.31;5115438;28;20059;-36
2023/03/15 05:43:10;;;;;;;7.65;6.65;;;;;;;1.07;100.00;101552.28;5115061;28;20471;-36
2023/03/15 05:45:36;;;;;;;9.30;7.55;;;;;;;1.09;100.00;101558.31;5115482;28;20137;-36
2023/03/15 05:48:02;;;;;;;7.95;7.15;;;;;;;1.09;100.00;101560.97;5115131;28;20419;-36
2023/03/15 05:50:28;;;;;;;7.72;6.75;;;;;;;1.06;100.00;101569.25;5115528;28;20030;-35
2023/03/15 05:52:54;;;;;;;7.07;6.45;;;;;;;1.10;100.00;101559.97;5115663;28;20027;-35
2023/03/15 05:55:19;;;;;;;8.43;7.60;;;;;;;1.06;100.00;101563.09;5115423;28;20027;-35
2023/03/15 05:57:45;;;;;;;8.48;7.07;;;;;;;0.96;100.00;101558.66;5115051;28;20016;-35
2023/03/15 06:00:11;;;;;;;9.70;7.57;;;;;;;1.05;100.00;101567.59;5114984;28;20391;-35
2023/03/15 06:02:37;;;;;;;9.00;7.65;;;;;;;1.04;100.00;101573.91;5115373;28;20047;-36
2023/03/15 06:05:02;;;;;;;8.53;7.73;;;;;;;1.06;100.00;101574.56;5115481;28;20417;-35
2023/03/15 06:07:28;;;;;;;8.20;7.40;;;;;;;0.97;100.00;101572.81;5114818;28;20512;-36
2023/03/15 06:09:53;;;;;;;8.47;7.53;;;;;;;1.00;100.00;101591.16;5114866;28;20253;-35
2023/03/15 06:12:19;;;;;;;7.97;6.43;;;;;;;1.06;100.00;101593.22;5114599;28;20080;-35
2023/03/15 06:14:44;;;;;;;8.73;7.83;;;;;;;1.07;100.00;101600.22;5115321;28;20026;-36
2023/03/15 06:17:10;;;;;;;8.45;7.65;;;;;;;1.12;100.00;101599.78;5114713;28;20352;-36
2023/03/15 06:19:35;;;;;;;9.63;8.50;;;;;;;1.15;100.00;101602.16;5114893;28;20093;-35
2023/03/15 06:22:00;;;;;;;8.83;7.93;;;;;;;1.12;100.00;101597.94;5114232;28;20548;-36
2023/03/15 06:24:26;;;;;;;9.03;8.13;;;;;;;1.15;100.00;101607.47;5114962;28;20464;-35
2023/03/15 06:26:53;;;;;;;8.47;7.47;;;;;;;1.03;100.00;101583.72;5114770;28;20027;-36
2023/03/15 06:29:20;;;;;;;9.13;8.23;;;;;;;1.13;100.00;101602.31;5114970;28;20042;-35
2023/03/15 06:31:48;;;;;;;9.07;8.20;;;;;;;1.27;100.00;101619.59;5114955;28;20042;-36
2023/03/15 06:34:14;;;;;;;9.48;7.75;;;;;;;1.23;100.00;101610.22;5113676;28;20468;-36
2023/03/15 06:36:41;;;;;;;9.32;8.20;;;;;;;1.39;100.00;101637.03;5114684;28;20024;-36
2023/03/15 06:39:10;;;;;;;11.35;8.88;;;;;;;1.43;100.00;101649.06;5114221;28;20059;-35
2023/03/15 06:41:35;;;;;;;9.70;7.75;;;;;;;1.47;100.00;101642.44;5114498;28;20448;-35
2023/03/15 06:44:00;;;;;;;8.98;7.95;;;;;;;1.39;100.00;101637.03;5114210;28;20031;-35
2023/03/15 06:46:26;;;;;;;10.03;8.20;;;;;;;1.48;100.00;101645.94;5113975;28;20019;-36
2023/03/15 06:48:51;;;;;;;10.00;8.50;;;;;;;1.49;100.00;101651.13;5114082;28;20028;-36
2023/03/15 06:51:17;;;;;;;9.53;7.50;;;;;;;1.58;100.00;101662.72;5114545;28;20039;-36
2023/03/15 06:53:42;;;;;;;9.63;7.90;;;;;;;1.56;100.00;101664.66;5114387;28;20061;-35
2023/03/15 06:56:07;;;;;;;7.93;7.13;;;;;;;1.62;100.00;101666.75;5114639;28;20459;-36
2023/03/15 06:58:33;;;;;;;8.87;7.77;;;;;;;1.58;100.00;101665.38;5114138;28;20023;-35
2023/03/15 07:00:58;;;;;;;9.40;7.80;;;;;;;1.68;100.00;101675.97;5114312;28;20028;-36
2023/03/15 07:03:23;;;;;;;8.23;7.43;;;;;;;1.67;100.00;101669.78;5114325;28;20039;-36
2023/03/15 07:05:51;;;;;;;8.03;7.27;;;;;;;1.78;100.00;101692.72;5114375;28;20031;-36
2023/03/15 07:08:18;;;;;;;8.88;7.00;;;;;;;1.83;100.00;101690.44;5113972;28;20113;-36
2023/03/15 07:10:44;;;;;;;9.80;7.78;;;;;;;1.89;100.00;101688.97;5114219;28;20105;-36
2023/03/15 07:13:09;;;;;;;8.15;6.93;;;;;;;1.93;100.00;101682.34;5114018;28;20100;-36
2023/03/15 07:15:38;;;;;;;9.33;6.80;;;;;;;1.96;100.00;101690.06;5114365;28;20030;-37
2023/03/15 07:18:03;;;;;;;8.98;7.47;;;;;;;2.07;100.00;101705.81;5113555;28;20020;-36
2023/03/15 07:20:30;;;;;;;8.13;7.23;;;;;;;2.12;100.00;101718.69;5113621;28;20024;-36
2023/03/15 07:22:56;;;;;;;9.25;7.50;;;;;;;2.13;100.00;101717.69;5115292;28;20028;-36
2023/03/15 07:25:22;;;;;;;10.10;7.28;;;;;;;2.10;100.00;101715.31;5117707;28;20020;-36
2023/03/15 07:27:49;;;;;;;12.20;10.02;;;;;;;2.18;100.00;101720.72;5117829;28;20054;-36
2023/03/15 07:30:16;;;;;;;10.95;7.15;;;;;;;2.20;100.00;101724.09;5117870;28;20039;-36
2023/03/15 07:32:41;;;;;;;;;;;;;;;2.29;100.00;101724.00;5118579;28;20046;-35
2023/03/15 07:35:07;;;;;;;7.55;6.75;;;;;;;2.28;100.00;101732.16;5118100;28;19908;-35
2023/03/15 07:37:33;;;;;;;;;;;;;;;2.35;100.00;101727.03;5118189;28;20027;-35
2023/03/15 07:39:59;;;;;;;8.20;6.32;;;;;;;2.24;100.00;101730.78;5118290;28;19919;-35
2023/03/15 07:42:25;;;;;;;8.00;7.00;;;;;;;2.35;100.00;101751.06;5117559;28;20032;-36
2023/03/15 07:44:50;;;;;;;10.35;6.45;;;;;;;2.44;100.00;101752.78;5117467;28;20102;-36
2023/03/15 07:47:16;;;;;;;7.10;6.33;;;;;;;2.57;100.00;101742.53;5117316;28;20028;-36
2023/03/15 07:49:41;;;;;;;7.13;6.20;;;;;;;2.69;100.00;101753.81;5117561;28;20258;-36
2023/03/15 07:52:07;;;;;;;9.33;6.40;;;;;;;2.76;100.00;101755.69;5117516;28;20076;-36
2023/03/15 07:54:33;;;;;;;8.75;6.07;;;;;;;2.80;100.00;101758.88;5117184;28;20028;-36
2023/03/15 07:56:58;;;;;;;8.40;5.95;;;;;;;2.78;100.00;101742.16;5117067;28;20142;-36
2023/03/15 07:59:24;;;;;;;8.02;5.53;;;;;;;2.93;100.00;101758.44;5118235;28;20019;-36
2023/03/15 08:01:49;;;;;;;7.83;5.10;;;;;;;2.96;100.00;101766.16;5116813;28;20030;-36
2023/03/15 08:04:15;;;;;;;6.97;4.90;;;;;;;3.04;100.00;101768.88;5116612;28;20280;-36
2023/03/15 08:06:40;;;;;;;5.43;4.50;;;;;;;3.15;100.00;101778.44;5117214;28;20031;-36
2023/03/15 08:09:05;;;;;;;4.97;4.27;;;;;;;3.16;100.00;101780.94;5116984;28;20024;-36
2023/03/15 08:11:32;;;;;;;7.70;3.80;;;;;;;3.23;100.00;101792.69;5117472;28;20023;-36
2023/03/15 08:13:57;;;;;;;5.78;4.07;;;;;;;3.26;100.00;101800.38;5116766;28;20032;-36
2023/03/15 08:16:22;;;;;;;5.97;3.50;;;;;;;3.31;100.00;101802.56;5117407;28;20024;-36
2023/03/15 08:18:48;;;;;;;5.60;3.60;;;;;;;3.34;100.00;101795.09;5116692;28;20062;-36
2023/03/15 08:21:13;;;;;;;4.53;3.20;;;;;;;3.48;100.00;101806.19;5117461;28;20024;-36
2023/03/15 08:23:39;;;;;;;3.90;2.90;;;;;;;3.54;100.00;101811.72;5116966;28;20063;-36
2023/03/15 08:26:05;;;;;;;7.25;3.28;;;;;;;3.60;100.00;101811.06;5116878;28;20016;-36
2023/03/15 08:28:30;;;;;;;4.05;2.70;;;;;;;3.59;100.00;101800.53;5117128;28;20133;-36
2023/03/15 08:30:55;;;;;;;6.43;2.83;;;;;;;3.65;100.00;101799.88;5117310;28;20110;-36
2023/03/15 08:33:21;;;;;;;4.37;2.33;;;;;;;3.76;100.00;101815.66;5116228;28;20031;-36
2023/03/15 08:35:53;;;;;;;6.03;3.80;;;;;;;3.85;100.00;101820.00;5115734;28;20085;-36
2023/03/15 08:38:19;;;;;;;4.35;2.38;;;;;;;3.88;100.00;101826.88;5116638;28;20059;-36
2023/03/15 08:40:45;;;;;;;6.23;2.73;;;;;;;3.70;100.00;101794.88;5116254;28;20059;-36
2023/03/15 08:43:11;;;;;;;5.00;2.50;;;;;;;3.93;100.00;101819.19;5116175;28;20273;-36
2023/03/15 08:45:36;;;;;;;3.13;2.50;;;;;;;4.01;100.00;101813.88;5116263;28;20076;-36
2023/03/15 08:48:01;;;;;;;5.00;2.60;;;;;;;4.17;100.00;101828.28;5116435;27;20293;-36
2023/03/15 08:50:30;;;;;;;7.40;3.00;;;;;;;4.21;100.00;101826.94;5116935;28;20455;-36
2023/03/15 08:52:56;;;;;;;4.20;2.40;;;;;;;4.27;100.00;101834.31;5116862;28;20035;-36
2023/03/15 08:55:21;;;;;;;4.53;2.47;;;;;;;4.33;100.00;101845.19;5115230;28;20365;-45
2023/03/15 08:57:47;;;;;;;8.15;2.70;;;;;;;4.31;100.00;101838.34;5115268;28;20024;-37
2023/03/15 09:00:23;;;;;;;5.63;2.63;;;;;;;4.42;100.00;101845.22;5116805;28;20027;-36
2023/03/15 09:02:50;;;;;;;5.43;3.10;;;;;;;4.51;100.00;101844.22;5115230;28;20398;-36
2023/03/15 09:05:16;;;;;;;5.25;3.10;;;;;;;4.57;100.00;101846.22;5116725;28;20024;-36
2023/03/15 09:07:42;;;;;;;8.60;3.38;;;;;;;4.60;100.00;101851.25;5116058;28;20368;-36
2023/03/15 09:10:16;;;;;;;4.30;2.90;;;;;;;4.57;100.00;101832.81;5116335;28;20069;-36
2023/03/15 09:12:42;;;;;;;6.03;2.42;;;;;;;4.77;100.00;101849.41;5116599;28;20032;-36
2023/03/15 09:15:09;;;;;;;4.95;2.22;;;;;;;4.80;100.00;101841.88;5115976;28;20023;-36
2023/03/15 09:17:34;;;;;;;4.75;2.17;;;;;;;4.81;100.00;101834.66;5115866;28;20474;-36
2023/03/15 09:19:59;;;;;;;6.53;2.10;;;;;;;5.00;100.00;101852.22;5116117;28;20032;-36
2023/03/15 09:22:25;;;;;;;4.47;1.70;;;;;;;5.06;100.00;101851.53;5115758;28;20357;-36
2023/03/15 09:24:51;;;;;;;4.13;1.90;;;;;;;4.96;100.00;101834.81;5116318;28;20059;-36
2023/03/15 09:27:17;;;;;;;4.70;2.20;;;;;;;5.08;100.00;101847.69;5116210;28;20452;-36
2023/03/15 09:29:42;;;;;;;5.35;1.98;;;;;;;5.15;100.00;101843.31;5115731;28;20031;-35
2023/03/15 09:32:08;;;;;;;6.23;2.13;;;;;;;5.27;100.00;101854.53;5115255;28;20039;-35
2023/03/15 09:34:34;;;;;;;7.43;3.05;;;;;;;5.24;100.00;101852.19;5115536;28;20387;-35
2023/03/15 09:37:00;;;;;;;7.65;2.10;;;;;;;5.24;100.00;101838.78;5115435;28;20463;-36
2023/03/15 09:39:25;;;;;;;6.63;2.40;;;;;;;5.45;100.00;101845.41;5115464;28;20027;-36
2023/03/15 09:42:00;;;;;;;7.90;2.20;;;;;;;5.65;100.00;101858.25;5115564;28;20027;-36
2023/03/15 09:44:38;;;;;;;5.57;2.60;;;;;;;5.74;100.00;101837.59;5114829;28;20364;-36
2023/03/15 09:47:36;;;;;;;5.03;1.55;;;;;;;5.85;100.00;101852.47;5114810;28;20032;-36
2023/03/15 09:50:13;;;;;;;;;;;;;;;5.98;100.00;101857.31;5115915;28;20523;-36
2023/03/15 09:52:47;;;;;;;5.13;1.50;;;;;;;5.98;100.00;101852.75;5115454;28;19934;-36
2023/03/15 09:55:31;;;;;;;6.10;1.70;;;;;;;6.20;100.00;101861.88;5115933;28;20400;-36
2023/03/15 09:58:02;;;;;;;4.90;1.40;;;;;;;6.25;100.00;101859.50;5115631;28;20051;-36
2023/03/15 10:00:42;;;;;;;4.15;1.60;;;;;;;6.34;100.00;101863.78;5115354;28;20024;-36
2023/03/15 10:03:17;;;;;;;5.25;1.67;;;;;;;6.25;94.91;101856.81;5115476;28;20376;-36
2023/03/15 10:05:46;;;;;;;5.05;1.70;;;;;;;6.13;99.71;101860.91;5115225;28;20063;-36
2023/03/15 10:08:14;;;;;;;6.35;1.85;;;;;;;5.98;99.92;101863.50;5114111;28;20378;-36
2023/03/15 10:10:50;;;;;;;7.63;1.83;;;;;;;6.00;97.29;101866.00;5114624;28;20097;-35
2023/03/15 10:13:38;;;;;;;6.05;1.70;;;;;;;6.02;100.00;101842.50;5114740;28;20102;-35
2023/03/15 10:16:06;;;;;;;7.30;1.58;;;;;;;6.25;98.19;101862.19;5114738;28;20024;-35
2023/03/15 10:18:31;;;;;;;9.32;2.33;;;;;;;6.51;95.86;101863.69;5114951;28;20046;-35
2023/03/15 10:21:04;;;;;;;4.60;1.43;;;;;;;6.52;93.65;101863.50;5115446;28;20439;-35
2023/03/15 10:24:10;;;;;;;4.22;1.50;;;;;;;6.68;95.65;101867.91;5114271;28;20024;-35
2023/03/15 10:26:38;;;;;;;6.15;1.60;;;;;;;6.88;89.11;101862.84;5031955;28;20141;-35
2023/03/15 10:29:13;;;;;;;4.35;1.40;;;;;;;7.13;89.38;101866.19;5101470;28;20055;-36
2023/03/15 10:31:40;;;;;;;5.10;1.30;;;;;;;7.11;86.04;101860.97;5114397;28;20122;-36
2023/03/15 10:34:08;;;;;;;6.35;1.33;;;;;;;6.99;87.21;101870.50;5114943;28;20451;-36
2023/03/15 10:36:33;;;;;;;8.93;1.98;;;;;;;7.09;87.10;101868.41;5114666;28;20023;-36
2023/03/15 10:38:59;;;;;;;7.15;1.40;;;;;;;7.31;84.28;101866.63;5114867;28;20032;-36
2023/03/15 10:41:42;;;;;;;5.57;1.43;;;;;;;7.70;88.67;101866.34;5114310;28;20034;-36
2023/03/15 10:44:20;;;;;;;4.97;1.63;;;;;;;7.81;85.17;101870.47;5114347;28;20265;-35
2023/03/15 10:46:59;;;;;;;5.75;1.50;;;;;;;8.02;84.64;101875.06;5114629;28;20020;-35
2023/03/15 10:49:35;;;;;;;4.18;1.30;;;;;;;8.20;88.00;101861.19;5114515;28;20023;-36
2023/03/15 10:52:01;;;;;;;4.53;1.75;;;;;;;8.21;83.04;101879.00;5114197;28;20023;-36
2023/03/15 10:54:27;;;;;;;8.75;2.03;;;;;;;8.35;80.58;101882.69;5113922;28;20024;-36
2023/03/15 10:57:14;;;;;;;4.32;1.08;;;;;;;8.43;79.32;101888.81;5114544;27;20486;-36
2023/03/15 10:59:54;;;;;;;5.60;1.10;;;;;;;8.48;74.74;101890.94;5114190;28;20080;-36
2023/03/15 11:02:23;;;;;;;5.00;1.27;;;;;;;8.46;76.49;101893.00;5114215;28;20048;-36
2023/03/15 11:05:13;;;;;;;5.10;1.40;;;;;;;8.48;72.40;101899.84;5114145;28;20032;-36
2023/03/15 11:07:56;;;;;;;5.22;1.30;;;;;;;8.65;74.48;101891.53;5114601;28;20073;-36
2023/03/15 11:10:24;;;;;;;3.33;1.10;;;;;;;8.68;70.13;101889.25;5114538;28;20032;-36
2023/03/15 11:12:49;;;;;;;4.57;1.02;;;;;;;8.71;68.39;101893.44;5114479;28;20084;-36
2023/03/15 11:15:17;;;;;;;3.45;1.17;;;;;;;8.73;65.51;101904.88;5114292;28;20019;-35
2023/03/15 11:17:46;;;;;;;4.63;1.05;;;;;;;8.70;65.44;101907.97;5113566;28;20032;-35
2023/03/15 11:20:34;;;;;;;4.30;1.33;;;;;;;8.73;67.31;101908.38;5113861;28;20024;-35
2023/03/15 11:23:04;;;;;;;7.57;1.40;;;;;;;8.57;65.88;101907.81;5114667;28;20097;-36
2023/03/15 11:25:32;;;;;;;5.90;1.33;;;;;;;8.57;69.28;101911.34;5114145;28;20067;-35
2023/03/15 11:27:58;;;;;;;4.05;1.33;;;;;;;8.61;66.74;101918.03;5113528;28;20028;-36
2023/03/15 11:30:30;;;;;;;5.43;1.13;;;;;;;8.69;69.58;101922.47;5113854;28;20422;-36